Nypd628 — WDH6551 — position and weather

sailwx.info

Track history (hours):
 
Tides and Currents Weather Stations Pressure Air Temp Water Temp Dewpoint Dewpoint Depression Visibility Wind Speed Wind Dir Waves Ship Positions

Nypd628

Owner: New York City Police Department, Brooklyn, NY. More information available from US FCC via Universal Licensing System.

Last reported at 2017-Dec-03 04:11 UTC. Time now 2017-Dec-17 02:33 UTC.
Position N 40°41' W 074°01'.
Warning: this ship's position is 13 days out of date.

Type: Law enforcement. MMSI: 367639170.

Date/timePositionNaut miles runAvg speedWind from/ knotsBaromVisibWave heightAir tempDewpointWater temp
2017-Dec-03 04:11N 40°41' W 074°01'0 0.0
2017-Dec-03 04:01N 40°41' W 074°01'0 0.0
2017-Dec-03 03:30N 40°41' W 074°01'2 3.1
2017-Dec-03 03:01N 40°40' W 074°01'2 0.2
2017-Dec-02 16:25N 40°42' W 074°01'0 0.0
2017-Dec-02 16:00N 40°42' W 074°01'0 0.1
2017-Dec-02 15:30N 40°42' W 074°01'0 0.0
2017-Dec-02 15:00N 40°42' W 074°01'0 0.1
2017-Dec-02 14:31N 40°42' W 074°01'0 0.0
2017-Dec-02 14:00N 40°42' W 074°01'0 0.0
2017-Dec-02 13:30N 40°42' W 074°01'0 0.0
2017-Dec-02 13:00N 40°42' W 074°01'0 0.0
2017-Dec-02 12:31N 40°42' W 074°01'1 1.6
2017-Dec-02 12:00N 40°41' W 074°01'3 5.4
2017-Dec-02 11:31N 40°39' W 074°02'0 0.0
2017-Dec-01 21:09N 40°39' W 074°02'1 7.7
2017-Dec-01 21:01N 40°40' W 074°01'1 0.1
2017-Dec-01 15:00N 40°40' W 074°00'2 0.8
2017-Dec-01 13:02N 40°39' W 074°02'0 0.0
2017-Dec-01 13:00N 40°39' W 074°02'0 0.0
2017-Dec-01 12:30N 40°39' W 074°02'0 0.0
2017-Dec-01 11:59N 40°39' W 074°02'0 0.0
2017-Dec-01 11:30N 40°39' W 074°02'3 0.4
2017-Dec-01 04:52N 40°41' W 074°01'0 0.0
2017-Dec-01 04:30N 40°41' W 074°01'0 0.0
2017-Dec-01 04:01N 40°41' W 074°01'0 0.0
2017-Dec-01 03:31N 40°41' W 074°01'0 0.0
2017-Dec-01 03:01N 40°41' W 074°01'0 0.0
2017-Dec-01 02:31N 40°41' W 074°01'0 0.0
2017-Dec-01 02:01N 40°41' W 074°01'3 5.7
2017-Dec-01 01:30N 40°39' W 074°02'0 0.0
2017-Dec-01 01:00N 40°39' W 074°02'1 0.3
2017-Nov-30 19:53N 40°40' W 074°01'1 3.5
2017-Nov-30 19:30N 40°41' W 074°01'2 0.1
2017-Nov-30 00:47N 40°43' W 074°01'0 0.0
2017-Nov-30 00:30N 40°43' W 074°01'0 0.0
2017-Nov-30 00:00N 40°43' W 074°01'0 0.0
2017-Nov-29 23:31N 40°43' W 074°01'0 0.8
2017-Nov-29 23:00N 40°42' W 074°01'4 7.4
2017-Nov-29 22:30N 40°39' W 074°02'0 0.0
2017-Nov-29 22:00N 40°39' W 074°02'0 0.0
2017-Nov-29 21:30N 40°39' W 074°02'3 5.8
2017-Nov-29 21:00N 40°41' W 074°01'0 0.0
2017-Nov-29 20:29N 40°41' W 074°01'0 0.0
2017-Nov-29 20:01N 40°41' W 074°01'0 0.0
2017-Nov-29 19:30N 40°41' W 074°01'0 0.0
2017-Nov-29 19:00N 40°41' W 074°01'0 0.0
2017-Nov-29 18:30N 40°41' W 074°01'0 0.0
2017-Nov-29 18:00N 40°41' W 074°01'2 3.9
2017-Nov-29 17:30N 40°40' W 074°01'3 0.1
2017-Nov-28 04:30N 40°42' W 074°00'0 0.0
2017-Nov-28 04:00N 40°42' W 074°00'0 0.1
2017-Nov-28 03:30N 40°42' W 074°00'0 0.0
2017-Nov-28 03:00N 40°42' W 074°00'0 0.0
2017-Nov-28 02:30N 40°42' W 074°00'0 0.0
2017-Nov-28 02:00N 40°42' W 074°00'0 0.0
2017-Nov-27 23:55N 40°42' W 074°00'0 0.1
2017-Nov-27 23:30N 40°42' W 074°00'2 0.4
2017-Nov-27 17:24N 40°44' W 074°02'0 0.0
2017-Nov-27 17:00N 40°44' W 074°02'0 0.0
2017-Nov-27 16:30N 40°44' W 074°02'0 0.0
2017-Nov-27 16:00N 40°44' W 074°02'1 2.5
2017-Nov-27 15:30N 40°43' W 074°02'4 3.5
2017-Nov-27 14:17N 40°39' W 074°02'0 0.0
2017-Nov-27 14:00N 40°39' W 074°02'0 0.0
2017-Nov-27 13:30N 40°39' W 074°02'0 0.0
2017-Nov-27 13:00N 40°39' W 074°02'0 0.0
2017-Nov-27 12:30N 40°39' W 074°02'0 0.0
2017-Nov-27 12:00N 40°39' W 074°02'0 0.0
2017-Nov-27 11:30N 40°39' W 074°02'3 1.0
2017-Nov-27 08:30N 40°41' W 074°01'0 0.0
2017-Nov-27 08:00N 40°41' W 074°01'0 0.0
2017-Nov-27 07:30N 40°41' W 074°01'0 0.0
2017-Nov-27 07:00N 40°41' W 074°01'0 0.0
2017-Nov-27 06:31N 40°41' W 074°01'0 0.0
2017-Nov-27 04:50N 40°41' W 074°01'0 0.0
2017-Nov-27 04:30N 40°41' W 074°01'0 0.0
2017-Nov-27 04:00N 40°41' W 074°01'0 0.0
2017-Nov-27 03:30N 40°41' W 074°01'0 0.0
2017-Nov-27 03:00N 40°41' W 074°01'0 0.0
2017-Nov-27 02:30N 40°41' W 074°01'0 0.0
2017-Nov-27 02:00N 40°41' W 074°01'0 0.0
2017-Nov-26 03:15N 40°41' W 074°01'0 0.0
2017-Nov-26 03:00N 40°41' W 074°01'3 0.2
2017-Nov-25 12:54N 40°39' W 074°02'0 0.0
2017-Nov-25 12:30N 40°39' W 074°02'0 0.0
2017-Nov-25 12:00N 40°39' W 074°02'0 0.0
2017-Nov-25 11:30N 40°39' W 074°02'1 2.1
2017-Nov-25 11:00N 40°40' W 074°01'1 1.5
2017-Nov-25 10:30N 40°40' W 074°00'0 0.0
2017-Nov-25 10:00N 40°40' W 074°00'0 0.0
2017-Nov-25 09:30N 40°40' W 074°00'0 0.0
2017-Nov-25 09:00N 40°40' W 074°00'0 0.0
2017-Nov-25 08:30N 40°40' W 074°00'0 0.0
2017-Nov-25 08:00N 40°40' W 074°00'0 0.0
2017-Nov-25 07:30N 40°40' W 074°00'0 0.0
2017-Nov-25 07:00N 40°40' W 074°00'1 2.0
2017-Nov-25 06:31N 40°41' W 074°01'3 6.4
2017-Nov-25 06:00N 40°43' W 073°58'2 0.7
2017-Nov-25 02:49N 40°41' W 074°01'0 0.0
2017-Nov-25 02:31N 40°41' W 074°01'0 0.0
2017-Nov-25 02:01N 40°41' W 074°01'0 0.1
2017-Nov-25 01:31N 40°41' W 074°01'3 5.8
2017-Nov-25 01:00N 40°39' W 074°02'6 0.6
2017-Nov-24 16:26N 40°44' W 074°02'0 0.0
2017-Nov-24 16:00N 40°44' W 074°02'0 0.0
2017-Nov-24 15:30N 40°44' W 074°02'0 0.0
2017-Nov-24 15:00N 40°44' W 074°02'0 0.0
2017-Nov-24 14:30N 40°44' W 074°02'0 0.0
2017-Nov-24 14:00N 40°44' W 074°02'611.1
2017-Nov-24 13:31N 40°39' W 074°02'0 0.1
2017-Nov-24 13:00N 40°39' W 074°02'  
Track history (hours):
 
Tides and Currents Weather Stations Pressure Air Temp Water Temp Dewpoint Dewpoint Depression Visibility Wind Speed Wind Dir Waves Ship Positions

Nypd628

Owner: New York City Police Department, Brooklyn, NY. More information available from US FCC via Universal Licensing System.

Last reported at 2017-Dec-03 04:11 UTC. Time now 2017-Dec-17 02:33 UTC.
Position N 40°41' W 074°01'.
Warning: this ship's position is 13 days out of date.

Type: Law enforcement. MMSI: 367639170.

Date/timePositionNaut miles runAvg speedWind from/ knotsBaromVisibWave heightAir tempDewpointWater temp
2017-Dec-03 04:11N 40°41' W 074°01'0 0.0
2017-Dec-03 04:01N 40°41' W 074°01'0 0.0
2017-Dec-03 03:30N 40°41' W 074°01'2 3.1
2017-Dec-03 03:01N 40°40' W 074°01'2 0.2
2017-Dec-02 16:25N 40°42' W 074°01'0 0.0
2017-Dec-02 16:00N 40°42' W 074°01'0 0.1
2017-Dec-02 15:30N 40°42' W 074°01'0 0.0
2017-Dec-02 15:00N 40°42' W 074°01'0 0.1
2017-Dec-02 14:31N 40°42' W 074°01'0 0.0
2017-Dec-02 14:00N 40°42' W 074°01'0 0.0
2017-Dec-02 13:30N 40°42' W 074°01'0 0.0
2017-Dec-02 13:00N 40°42' W 074°01'0 0.0
2017-Dec-02 12:31N 40°42' W 074°01'1 1.6
2017-Dec-02 12:00N 40°41' W 074°01'3 5.4
2017-Dec-02 11:31N 40°39' W 074°02'0 0.0
2017-Dec-01 21:09N 40°39' W 074°02'1 7.7
2017-Dec-01 21:01N 40°40' W 074°01'1 0.1
2017-Dec-01 15:00N 40°40' W 074°00'2 0.8
2017-Dec-01 13:02N 40°39' W 074°02'0 0.0
2017-Dec-01 13:00N 40°39' W 074°02'0 0.0
2017-Dec-01 12:30N 40°39' W 074°02'0 0.0
2017-Dec-01 11:59N 40°39' W 074°02'0 0.0
2017-Dec-01 11:30N 40°39' W 074°02'3 0.4
2017-Dec-01 04:52N 40°41' W 074°01'0 0.0
2017-Dec-01 04:30N 40°41' W 074°01'0 0.0
2017-Dec-01 04:01N 40°41' W 074°01'0 0.0
2017-Dec-01 03:31N 40°41' W 074°01'0 0.0
2017-Dec-01 03:01N 40°41' W 074°01'0 0.0
2017-Dec-01 02:31N 40°41' W 074°01'0 0.0
2017-Dec-01 02:01N 40°41' W 074°01'3 5.7
2017-Dec-01 01:30N 40°39' W 074°02'0 0.0
2017-Dec-01 01:00N 40°39' W 074°02'1 0.3
2017-Nov-30 19:53N 40°40' W 074°01'1 3.5
2017-Nov-30 19:30N 40°41' W 074°01'2 0.1
2017-Nov-30 00:47N 40°43' W 074°01'0 0.0
2017-Nov-30 00:30N 40°43' W 074°01'0 0.0
2017-Nov-30 00:00N 40°43' W 074°01'0 0.0
2017-Nov-29 23:31N 40°43' W 074°01'0 0.8
2017-Nov-29 23:00N 40°42' W 074°01'4 7.4
2017-Nov-29 22:30N 40°39' W 074°02'0 0.0
2017-Nov-29 22:00N 40°39' W 074°02'0 0.0
2017-Nov-29 21:30N 40°39' W 074°02'3 5.8
2017-Nov-29 21:00N 40°41' W 074°01'0 0.0
2017-Nov-29 20:29N 40°41' W 074°01'0 0.0
2017-Nov-29 20:01N 40°41' W 074°01'0 0.0
2017-Nov-29 19:30N 40°41' W 074°01'0 0.0
2017-Nov-29 19:00N 40°41' W 074°01'0 0.0
2017-Nov-29 18:30N 40°41' W 074°01'0 0.0
2017-Nov-29 18:00N 40°41' W 074°01'2 3.9
2017-Nov-29 17:30N 40°40' W 074°01'3 0.1
2017-Nov-28 04:30N 40°42' W 074°00'0 0.0
2017-Nov-28 04:00N 40°42' W 074°00'0 0.1
2017-Nov-28 03:30N 40°42' W 074°00'0 0.0
2017-Nov-28 03:00N 40°42' W 074°00'0 0.0
2017-Nov-28 02:30N 40°42' W 074°00'0 0.0
2017-Nov-28 02:00N 40°42' W 074°00'0 0.0
2017-Nov-27 23:55N 40°42' W 074°00'0 0.1
2017-Nov-27 23:30N 40°42' W 074°00'2 0.4
2017-Nov-27 17:24N 40°44' W 074°02'0 0.0
2017-Nov-27 17:00N 40°44' W 074°02'0 0.0
2017-Nov-27 16:30N 40°44' W 074°02'0 0.0
2017-Nov-27 16:00N 40°44' W 074°02'1 2.5
2017-Nov-27 15:30N 40°43' W 074°02'4 3.5
2017-Nov-27 14:17N 40°39' W 074°02'0 0.0
2017-Nov-27 14:00N 40°39' W 074°02'0 0.0
2017-Nov-27 13:30N 40°39' W 074°02'0 0.0
2017-Nov-27 13:00N 40°39' W 074°02'0 0.0
2017-Nov-27 12:30N 40°39' W 074°02'0 0.0
2017-Nov-27 12:00N 40°39' W 074°02'0 0.0
2017-Nov-27 11:30N 40°39' W 074°02'3 1.0
2017-Nov-27 08:30N 40°41' W 074°01'0 0.0
2017-Nov-27 08:00N 40°41' W 074°01'0 0.0
2017-Nov-27 07:30N 40°41' W 074°01'0 0.0
2017-Nov-27 07:00N 40°41' W 074°01'0 0.0
2017-Nov-27 06:31N 40°41' W 074°01'0 0.0
2017-Nov-27 04:50N 40°41' W 074°01'0 0.0
2017-Nov-27 04:30N 40°41' W 074°01'0 0.0
2017-Nov-27 04:00N 40°41' W 074°01'0 0.0
2017-Nov-27 03:30N 40°41' W 074°01'0 0.0
2017-Nov-27 03:00N 40°41' W 074°01'0 0.0
2017-Nov-27 02:30N 40°41' W 074°01'0 0.0
2017-Nov-27 02:00N 40°41' W 074°01'0 0.0
2017-Nov-26 03:15N 40°41' W 074°01'0 0.0
2017-Nov-26 03:00N 40°41' W 074°01'3 0.2
2017-Nov-25 12:54N 40°39' W 074°02'0 0.0
2017-Nov-25 12:30N 40°39' W 074°02'0 0.0
2017-Nov-25 12:00N 40°39' W 074°02'0 0.0
2017-Nov-25 11:30N 40°39' W 074°02'1 2.1
2017-Nov-25 11:00N 40°40' W 074°01'1 1.5
2017-Nov-25 10:30N 40°40' W 074°00'0 0.0
2017-Nov-25 10:00N 40°40' W 074°00'0 0.0
2017-Nov-25 09:30N 40°40' W 074°00'0 0.0
2017-Nov-25 09:00N 40°40' W 074°00'0 0.0
2017-Nov-25 08:30N 40°40' W 074°00'0 0.0
2017-Nov-25 08:00N 40°40' W 074°00'0 0.0
2017-Nov-25 07:30N 40°40' W 074°00'0 0.0
2017-Nov-25 07:00N 40°40' W 074°00'1 2.0
2017-Nov-25 06:31N 40°41' W 074°01'3 6.4
2017-Nov-25 06:00N 40°43' W 073°58'2 0.7
2017-Nov-25 02:49N 40°41' W 074°01'0 0.0
2017-Nov-25 02:31N 40°41' W 074°01'0 0.0
2017-Nov-25 02:01N 40°41' W 074°01'0 0.1
2017-Nov-25 01:31N 40°41' W 074°01'3 5.8
2017-Nov-25 01:00N 40°39' W 074°02'6 0.6
2017-Nov-24 16:26N 40°44' W 074°02'0 0.0
2017-Nov-24 16:00N 40°44' W 074°02'0 0.0
2017-Nov-24 15:30N 40°44' W 074°02'0 0.0
2017-Nov-24 15:00N 40°44' W 074°02'0 0.0
2017-Nov-24 14:30N 40°44' W 074°02'0 0.0
2017-Nov-24 14:00N 40°44' W 074°02'611.1
2017-Nov-24 13:31N 40°39' W 074°02'0 0.1
2017-Nov-24 13:00N 40°39' W 074°02'  

Dump ship's entire track history